Time;durP1;ratioP1;P1;durP2;ratioP2;P2;SDS_P1;SDS_P2;PMS_P1;PMS_P2;Temp;Humidity;BMP_temperature;BMP_pressure;BME280_temperature;BME280_humidity;BME280_pressure;Samples;Min_cycle;Max_cycle;Signal;HPM_P1;HPM_P2
2022/07/09 00:01:45;;;;;;;11.12;4.87;;;;;;;21.30;100.00;99411.41;1662584;85;21054;-88
2022/07/09 00:04:17;;;;;;;10.88;4.62;;;;;;;21.24;100.00;99407.22;1651265;86;21058;-88
2022/07/09 00:06:44;;;;;;;9.13;4.55;;;;;;;21.18;100.00;99405.52;1662473;86;21041;-86
2022/07/09 00:09:13;;;;;;;13.18;4.72;;;;;;;21.14;100.00;99410.39;1662278;86;21078;-88
2022/07/09 00:11:40;;;;;;;8.15;4.72;;;;;;;21.09;100.00;99402.08;1662377;85;21037;-88
2022/07/09 00:14:07;;;;;;;8.78;4.87;;;;;;;21.03;100.00;99397.92;1662281;86;21049;-88
2022/07/09 00:16:34;;;;;;;7.65;4.25;;;;;;;21.00;100.00;99401.70;1662255;86;21098;-88
2022/07/09 00:19:01;;;;;;;11.95;4.72;;;;;;;20.97;100.00;99398.93;1662143;86;21031;-86
2022/07/09 00:21:28;;;;;;;11.00;4.47;;;;;;;20.96;100.00;99395.88;1661918;86;21061;-87
2022/07/09 00:23:55;;;;;;;11.12;4.70;;;;;;;20.95;100.00;99394.23;1662209;86;21532;-88
2022/07/09 00:26:22;;;;;;;8.38;4.80;;;;;;;20.93;100.00;99399.16;1662265;86;21050;-88
2022/07/09 00:28:49;;;;;;;14.33;4.70;;;;;;;20.90;100.00;99394.72;1668860;85;21097;-87
2022/07/09 00:31:16;;;;;;;10.75;4.78;;;;;;;20.86;100.00;99389.73;1681278;85;21016;-88
2022/07/09 00:33:43;;;;;;;15.05;5.00;;;;;;;20.83;100.00;99390.78;1681424;85;21057;-87
2022/07/09 00:36:12;;;;;;;10.28;4.47;;;;;;;20.81;100.00;99388.84;1681470;85;21076;-87
2022/07/09 00:38:40;;;;;;;12.15;4.50;;;;;;;20.79;100.00;99396.50;1681281;85;21048;-87
2022/07/09 00:41:07;;;;;;;13.98;4.40;;;;;;;20.77;100.00;99392.63;1681451;85;21560;-87
2022/07/09 00:43:35;;;;;;;15.50;5.15;;;;;;;20.76;100.00;99392.33;1681555;85;21076;-88
2022/07/09 00:46:03;;;;;;;10.65;4.95;;;;;;;20.76;100.00;99397.83;1681347;85;21053;-87
2022/07/09 00:48:30;;;;;;;10.50;5.17;;;;;;;20.76;100.00;99397.00;1681102;85;21073;-87
2022/07/09 00:50:57;;;;;;;9.55;4.50;;;;;;;20.74;100.00;99388.19;1681632;85;21061;-86
2022/07/09 00:53:25;;;;;;;13.45;4.50;;;;;;;20.72;100.00;99384.32;1681411;83;21064;-87
2022/07/09 00:55:52;;;;;;;10.60;4.65;;;;;;;20.72;100.00;99380.20;1681604;85;21037;-87
2022/07/09 00:58:19;;;;;;;10.18;4.65;;;;;;;20.73;100.00;99385.97;1681570;85;21088;-87
2022/07/09 01:00:49;;;;;;;9.35;4.78;;;;;;;20.74;100.00;99390.94;1681498;85;21099;-86
2022/07/09 01:03:17;;;;;;;11.15;4.70;;;;;;;20.73;100.00;99388.71;1681543;85;21281;-87
2022/07/09 01:05:45;;;;;;;10.85;4.83;;;;;;;20.75;100.00;99396.70;1681415;85;21061;-86
2022/07/09 01:08:12;;;;;;;11.90;4.28;;;;;;;20.77;100.00;99395.90;1681312;85;21048;-86
2022/07/09 01:10:39;;;;;;;10.35;5.00;;;;;;;20.79;100.00;99393.76;1681504;85;21096;-87
2022/07/09 01:13:06;;;;;;;12.15;4.55;;;;;;;20.80;100.00;99394.84;1681371;84;21068;-88
2022/07/09 01:15:34;;;;;;;9.43;4.53;;;;;;;20.84;100.00;99394.65;1681281;85;21036;-88
2022/07/09 01:18:03;;;;;;;9.18;4.78;;;;;;;20.90;100.00;99398.29;1681179;85;21025;-88
2022/07/09 01:20:31;;;;;;;12.35;4.87;;;;;;;20.95;100.00;99397.54;1681423;83;21065;-88
2022/07/09 01:22:59;;;;;;;13.38;4.75;;;;;;;20.98;100.00;99395.63;1681231;85;21034;-87
2022/07/09 01:25:38;;;;;;;12.95;4.90;;;;;;;21.00;100.00;99392.93;1681421;83;21065;-88
2022/07/09 01:28:09;;;;;;;15.00;5.17;;;;;;;21.01;100.00;99392.38;1681127;85;21539;-87
2022/07/09 01:30:39;;;;;;;14.35;5.05;;;;;;;21.03;100.00;99391.58;1682179;84;21052;-87
2022/07/09 01:33:09;;;;;;;14.63;5.45;;;;;;;21.04;100.00;99394.62;1681323;85;21041;-86
2022/07/09 01:35:38;;;;;;;12.25;5.17;;;;;;;21.06;100.00;99393.82;1681664;85;21089;-86
2022/07/09 01:38:08;;;;;;;14.10;5.58;;;;;;;21.07;100.00;99390.00;1681242;85;21029;-88
2022/07/09 01:40:36;;;;;;;11.03;5.20;;;;;;;21.05;100.00;99388.02;1681265;85;21081;-88
2022/07/09 01:43:03;;;;;;;12.50;5.70;;;;;;;21.04;100.00;99388.58;1681413;85;21068;-86
2022/07/09 01:45:31;;;;;;;13.75;5.08;;;;;;;21.04;100.00;99385.00;1681493;85;21072;-87
2022/07/09 01:47:58;;;;;;;14.90;5.65;;;;;;;21.04;100.00;99389.13;1681188;85;21045;-88
2022/07/09 01:50:25;;;;;;;15.25;5.20;;;;;;;21.05;100.00;99388.02;1681573;85;21062;-87
2022/07/09 01:52:53;;;;;;;27.17;6.22;;;;;;;21.03;100.00;99388.83;1681897;83;21053;-88
2022/07/09 01:55:21;;;;;;;18.02;5.90;;;;;;;21.03;100.00;99395.70;1682138;83;20978;-88
2022/07/09 01:57:48;;;;;;;16.55;5.60;;;;;;;21.03;100.00;99397.92;1682264;83;21057;-88
2022/07/09 02:00:19;;;;;;;13.60;4.97;;;;;;;21.05;100.00;99397.13;1672614;83;21092;-87
2022/07/09 02:02:47;;;;;;;18.75;5.08;;;;;;;21.07;100.00;99397.39;1682053;83;21002;-88
2022/07/09 02:05:34;;;;;;;14.18;5.30;;;;;;;21.06;100.00;99397.94;1681427;85;21041;-88
2022/07/09 02:08:01;;;;;;;20.02;5.47;;;;;;;21.05;100.00;99396.27;1680974;85;21532;-73
2022/07/09 02:10:30;;;;;;;11.73;5.17;;;;;;;21.04;100.00;99401.50;1680745;85;21594;-74
2022/07/09 02:12:58;;;;;;;22.15;8.10;;;;;;;21.01;100.00;99408.31;1680769;85;21586;-74
2022/07/09 02:15:25;;;;;;;17.42;7.00;;;;;;;20.97;100.00;99409.10;1669700;85;21061;-73
2022/07/09 02:17:52;;;;;;;15.58;6.67;;;;;;;20.88;100.00;99405.14;1669566;85;21051;-74
2022/07/09 02:20:19;;;;;;;13.43;6.90;;;;;;;20.72;100.00;99406.30;1681146;84;21063;-73
2022/07/09 02:22:46;;;;;;;16.32;7.05;;;;;;;20.55;100.00;99410.41;1669391;85;21054;-73
2022/07/09 02:25:13;;;;;;;16.82;6.37;;;;;;;20.34;100.00;99415.30;1681003;85;21039;-73
2022/07/09 02:27:40;;;;;;;16.30;8.30;;;;;;;20.12;100.00;99440.76;1680817;85;21030;-75
2022/07/09 02:30:08;;;;;;;18.30;8.90;;;;;;;19.90;100.00;99442.86;1681148;85;21535;-73
2022/07/09 02:32:36;;;;;;;17.82;9.05;;;;;;;19.64;100.00;99437.41;1680714;85;20999;-75
2022/07/09 02:35:04;;;;;;;18.20;8.85;;;;;;;19.36;100.00;99434.11;1680936;85;21091;-74
2022/07/09 02:37:32;;;;;;;19.32;9.43;;;;;;;19.09;100.00;99422.89;1669475;85;21022;-75
2022/07/09 02:39:59;;;;;;;21.17;8.68;;;;;;;18.89;100.00;99410.94;1681042;85;21101;-73
2022/07/09 02:42:26;;;;;;;17.75;8.23;;;;;;;18.65;100.00;99406.84;1680844;85;21058;-75
2022/07/09 02:44:53;;;;;;;19.42;8.63;;;;;;;18.52;100.00;99414.77;1680933;85;21532;-74
2022/07/09 02:47:21;;;;;;;20.62;8.60;;;;;;;18.45;100.00;99414.05;1669505;85;21050;-73
2022/07/09 02:49:48;;;;;;;21.35;8.83;;;;;;;18.40;100.00;99406.55;1681431;85;21027;-73
2022/07/09 02:52:15;;;;;;;98.67;18.40;;;;;;;18.37;100.00;99404.83;1669674;85;20998;-73
2022/07/09 02:54:43;;;;;;;30.30;10.43;;;;;;;18.35;100.00;99397.39;1680989;85;21065;-74
2022/07/09 02:57:11;;;;;;;25.97;9.75;;;;;;;18.37;100.00;99382.93;1681042;84;21054;-73
2022/07/09 02:59:38;;;;;;;28.25;12.03;;;;;;;18.43;100.00;99385.24;1680918;85;21018;-73
2022/07/09 03:02:06;;;;;;;22.15;11.40;;;;;;;18.50;100.00;99377.22;1681304;85;21054;-74
2022/07/09 03:04:33;;;;;;;22.90;11.50;;;;;;;18.59;100.00;99364.83;1681030;85;21531;-74
2022/07/09 03:07:01;;;;;;;18.30;11.20;;;;;;;18.71;100.00;99346.17;1684097;83;21161;-74
2022/07/09 03:09:28;;;;;;;22.65;11.65;;;;;;;18.84;100.00;99331.39;1691363;84;21551;-75
2022/07/09 03:11:55;;;;;;;19.07;10.98;;;;;;;18.97;100.00;99314.14;1684609;84;21571;-73
2022/07/09 03:14:23;;;;;;;19.45;10.80;;;;;;;19.10;100.00;99286.16;1641427;86;21131;-75
2022/07/09 03:16:50;;;;;;;20.48;10.78;;;;;;;19.23;100.00;99272.17;1694282;85;21034;-74
2022/07/09 03:19:19;;;;;;;19.73;11.43;;;;;;;19.34;100.00;99243.85;1678379;84;21570;-74
2022/07/09 03:21:48;;;;;;;18.42;11.05;;;;;;;19.44;100.00;99218.53;1706237;84;21192;-74
2022/07/09 03:24:15;;;;;;;16.27;10.75;;;;;;;19.55;100.00;99189.37;1696613;83;21050;-74
2022/07/09 03:26:42;;;;;;;19.90;11.00;;;;;;;19.66;100.00;99175.27;1696560;85;20998;-75
2022/07/09 03:29:09;;;;;;;18.85;11.33;;;;;;;19.77;100.00;99152.41;1676792;85;21596;-74
2022/07/09 03:31:38;;;;;;;18.85;11.40;;;;;;;19.87;100.00;99132.53;1696383;84;21077;-74
2022/07/09 03:34:05;;;;;;;20.12;11.83;;;;;;;19.96;100.00;99110.42;1696540;85;21498;-74
2022/07/09 03:36:33;;;;;;;18.70;11.75;;;;;;;20.05;100.00;99088.85;1696309;83;21092;-75
2022/07/09 03:39:00;;;;;;;20.05;11.63;;;;;;;20.15;100.00;99079.89;1696665;85;21061;-74
2022/07/09 03:41:27;;;;;;;19.50;11.70;;;;;;;20.26;100.00;99064.66;1696423;83;21093;-75
2022/07/09 03:43:54;;;;;;;17.67;11.20;;;;;;;20.36;100.00;99057.09;1697800;85;21058;-73
2022/07/09 03:46:21;;;;;;;19.37;11.43;;;;;;;20.47;100.00;99049.77;1713057;83;21014;-74
2022/07/09 03:48:48;;;;;;;17.98;11.90;;;;;;;20.59;100.00;99052.34;1711994;83;21026;-75
2022/07/09 03:51:16;;;;;;;22.98;11.73;;;;;;;20.69;100.00;99051.09;1722160;83;21002;-75
2022/07/09 03:53:43;;;;;;;21.48;11.93;;;;;;;20.79;100.00;99048.44;1722016;83;21492;-75
2022/07/09 03:56:12;;;;;;;21.12;12.15;;;;;;;20.89;100.00;99050.41;1721972;83;21045;-74
2022/07/09 03:58:39;;;;;;;21.95;12.13;;;;;;;20.98;100.00;99052.98;1712147;83;21034;-76
2022/07/09 04:01:06;;;;;;;19.95;11.57;;;;;;;21.08;100.00;99056.33;1712205;83;21002;-75
2022/07/09 04:03:33;;;;;;;18.12;11.25;;;;;;;21.18;100.00;99067.41;1722022;83;21002;-74
2022/07/09 04:06:00;;;;;;;18.10;11.63;;;;;;;21.30;100.00;99069.11;1722317;83;21097;-75
2022/07/09 04:08:28;;;;;;;20.02;12.03;;;;;;;21.41;100.00;99068.92;1712015;83;21579;-75
2022/07/09 04:10:56;;;;;;;20.52;11.93;;;;;;;21.52;100.00;99066.27;1712096;83;21066;-75
2022/07/09 04:13:23;;;;;;;19.25;12.53;;;;;;;21.63;100.00;99076.22;1722327;83;20994;-75
2022/07/09 04:15:50;;;;;;;19.02;12.23;;;;;;;21.76;100.00;99088.65;1670696;83;21030;-75
2022/07/09 04:18:19;;;;;;;20.12;12.23;;;;;;;21.89;100.00;99093.67;1712333;83;21064;-75
2022/07/09 04:20:47;;;;;;;20.55;12.05;;;;;;;22.04;100.00;99098.96;1722259;82;21045;-75
2022/07/09 04:23:14;;;;;;;19.50;11.97;;;;;;;22.17;100.00;99107.55;1722039;82;20978;-75
2022/07/09 04:25:42;;;;;;;17.10;11.65;;;;;;;22.30;100.00;99107.61;1670760;83;21046;-75
2022/07/09 04:28:08;;;;;;;19.40;11.33;;;;;;;22.51;100.00;99120.88;1722385;83;21018;-75
2022/07/09 04:30:35;;;;;;;23.65;12.20;;;;;;;22.75;100.00;99123.12;1722333;83;21018;-75
2022/07/09 04:33:03;;;;;;;18.75;11.35;;;;;;;22.97;100.00;99132.52;1721930;83;21018;-75
2022/07/09 04:35:30;;;;;;;18.70;12.20;;;;;;;23.19;100.00;99154.33;1722038;83;21077;-76
2022/07/09 04:37:57;;;;;;;19.70;11.65;;;;;;;23.41;100.00;99158.19;1712158;83;20982;-75
2022/07/09 04:40:24;;;;;;;17.48;11.53;;;;;;;23.62;100.00;99175.55;1712353;83;20990;-75
2022/07/09 04:42:51;;;;;;;21.02;12.50;;;;;;;23.83;100.00;99186.56;1722152;82;21003;-75
2022/07/09 04:45:19;;;;;;;21.15;11.55;;;;;;;24.02;100.00;99200.61;1722411;83;21053;-74
2022/07/09 04:47:46;;;;;;;20.08;13.10;;;;;;;24.17;100.00;99219.05;1712312;83;21034;-74
2022/07/09 04:50:13;;;;;;;22.40;13.20;;;;;;;24.30;100.00;99233.66;1722299;82;21073;-74
2022/07/09 04:52:40;;;;;;;24.32;14.90;;;;;;;24.45;100.00;99241.90;1722119;83;21050;-74
2022/07/09 04:55:10;;;;;;;25.77;14.98;;;;;;;24.63;100.00;99254.29;1712379;83;21589;-73
2022/07/09 04:57:37;;;;;;;25.05;15.35;;;;;;;24.80;100.00;99262.20;1722366;83;20998;-75
2022/07/09 05:00:07;;;;;;;30.12;14.60;;;;;;;24.94;100.00;99271.27;1722160;83;20987;-75
2022/07/09 05:02:34;;;;;;;22.65;13.70;;;;;;;25.07;100.00;99278.11;1722172;83;21049;-74
2022/07/09 05:05:03;;;;;;;21.40;12.75;;;;;;;25.18;100.00;99283.87;1670472;83;20994;-73
2022/07/09 05:07:31;;;;;;;21.97;12.93;;;;;;;25.33;100.00;99285.73;1729163;81;21571;-75
2022/07/09 05:10:00;;;;;;;19.52;12.33;;;;;;;25.49;100.00;99285.06;1716520;83;21058;-75
2022/07/09 05:12:29;;;;;;;22.37;12.73;;;;;;;25.68;100.00;99291.55;1736298;82;20938;-74
2022/07/09 05:14:57;;;;;;;20.20;12.25;;;;;;;25.88;100.00;99291.11;1711489;83;21581;-74
2022/07/09 05:17:23;;;;;;;20.62;12.03;;;;;;;26.06;100.00;99292.34;1689633;84;21093;-74
2022/07/09 05:19:52;;;;;;;20.80;11.83;;;;;;;26.25;100.00;99300.19;1711437;84;21037;-74
2022/07/09 05:22:19;;;;;;;19.90;11.68;;;;;;;26.41;100.00;99301.41;1711316;83;21104;-74
2022/07/09 05:24:46;;;;;;;21.80;12.60;;;;;;;26.53;100.00;99306.81;1711665;83;21005;-74
2022/07/09 05:27:15;;;;;;;19.70;12.03;;;;;;;26.68;100.00;99314.17;1711321;83;21081;-75
2022/07/09 05:29:42;;;;;;;19.87;12.28;;;;;;;26.81;100.00;99306.25;1711399;83;21562;-75
2022/07/09 05:32:10;;;;;;;19.65;11.80;;;;;;;26.94;100.00;99311.06;1713749;84;20997;-75
2022/07/09 05:34:37;;;;;;;22.10;12.88;;;;;;;27.13;100.00;99313.86;1691309;84;21070;-75
2022/07/09 05:37:05;;;;;;;20.92;12.15;;;;;;;27.33;100.00;99319.70;1713830;83;21026;-74
2022/07/09 05:39:32;;;;;;;22.22;13.72;;;;;;;27.48;100.00;99322.80;1713958;83;21002;-74
2022/07/09 05:41:59;;;;;;;23.80;13.58;;;;;;;27.62;100.00;99325.65;1713850;83;21535;-74
2022/07/09 05:44:26;;;;;;;21.60;13.38;;;;;;;27.77;100.00;99323.20;1713672;84;21034;-74
2022/07/09 05:46:53;;;;;;;23.10;13.13;;;;;;;27.94;100.00;99324.90;1713648;84;21053;-74
2022/07/09 05:49:20;;;;;;;21.42;13.05;;;;;;;28.17;100.00;99329.20;1691485;84;21023;-74
2022/07/09 05:51:47;;;;;;;21.60;13.53;;;;;;;28.37;100.00;99328.03;1713786;84;21038;-74
2022/07/09 05:54:14;;;;;;;20.45;13.18;;;;;;;28.58;100.00;99332.66;1691308;84;21077;-73
2022/07/09 05:56:41;;;;;;;24.85;13.80;;;;;;;28.77;100.00;99338.10;1713164;83;20999;-74
2022/07/09 05:59:08;;;;;;;21.75;13.50;;;;;;;28.96;100.00;99344.95;1691393;84;20963;-74
2022/07/09 06:01:39;;;;;;;19.82;12.47;;;;;;;29.15;100.00;99342.90;1713624;84;20991;-74
2022/07/09 06:04:07;;;;;;;24.85;12.85;;;;;;;29.31;100.00;99346.75;1713647;84;21508;-75
2022/07/09 06:06:35;;;;;;;22.77;13.53;;;;;;;29.48;100.00;99353.03;1713627;83;21109;-73
2022/07/09 06:09:02;;;;;;;23.10;12.95;;;;;;;29.59;100.00;99354.45;1729167;81;21028;-73
2022/07/09 06:11:29;;;;;;;22.02;12.93;;;;;;;29.77;100.00;99353.23;1728443;83;21073;-73
2022/07/09 06:13:56;;;;;;;18.52;12.18;;;;;;;29.90;100.00;99353.73;1693849;85;21315;-74
2022/07/09 06:16:23;;;;;;;30.52;14.53;;;;;;;29.95;100.00;99347.22;1693398;85;21090;-74
2022/07/09 06:18:50;;;;;;;20.32;11.20;;;;;;;29.97;100.00;99353.30;1663867;85;21539;-73
2022/07/09 06:21:17;;;;;;;20.57;10.85;;;;;;;29.85;100.00;99361.64;1692816;85;21551;-72
2022/07/09 06:23:45;;;;;;;19.85;11.70;;;;;;;29.67;100.00;99359.25;1694070;85;21055;-73
2022/07/09 06:26:13;;;;;;;20.65;11.75;;;;;;;29.68;100.00;99351.74;1688836;85;21106;-75
2022/07/09 06:28:40;;;;;;;21.12;12.03;;;;;;;29.84;100.00;99353.63;1694739;83;21010;-74
2022/07/09 06:31:08;;;;;;;20.82;12.78;;;;;;;30.12;100.00;99354.86;1694373;85;21516;-74
2022/07/09 06:33:35;;;;;;;19.65;11.70;;;;;;;30.41;100.00;99346.86;1688723;85;21019;-74
2022/07/09 06:36:02;;;;;;;20.17;12.88;;;;;;;30.73;100.00;99345.45;1694748;85;21128;-73
2022/07/09 06:38:29;;;;;;;19.10;11.65;;;;;;;30.94;100.00;99354.09;1694360;83;21067;-75
2022/07/09 06:40:56;;;;;;;21.35;12.35;;;;;;;30.93;100.00;99353.25;1694676;85;21552;-75
2022/07/09 06:43:24;;;;;;;21.95;11.63;;;;;;;30.93;100.00;99358.02;1694253;85;21034;-75
2022/07/09 06:45:53;;;;;;;20.35;10.55;;;;;;;30.85;100.00;99352.05;1694646;85;21516;-74
2022/07/09 06:48:20;;;;;;;23.62;10.82;;;;;;;30.85;100.00;99355.42;1694478;85;21539;-74
2022/07/09 06:50:47;;;;;;;20.45;11.85;;;;;;;31.01;100.00;99355.25;1694647;85;21524;-74
2022/07/09 06:53:14;;;;;;;19.07;11.78;;;;;;;31.14;100.00;99357.66;1694566;85;21019;-73
2022/07/09 06:55:43;;;;;;;18.65;10.80;;;;;;;31.27;100.00;99360.64;1694792;85;21027;-73
2022/07/09 06:58:11;;;;;;;19.15;10.60;;;;;;;31.35;100.00;99361.23;1694772;85;21003;-74
2022/07/09 07:00:39;;;;;;;19.98;9.58;;;;;;;31.39;100.00;99360.27;1694308;83;21098;-75
2022/07/09 07:03:06;;;;;;;19.75;10.48;;;;;;;31.54;100.00;99360.97;1688849;85;20995;-76
2022/07/09 07:05:33;;;;;;;20.82;11.03;;;;;;;31.76;100.00;99362.17;1694274;85;21090;-74
2022/07/09 07:08:00;;;;;;;22.87;11.25;;;;;;;31.87;100.00;99364.06;1682294;83;21076;-75
2022/07/09 07:10:27;;;;;;;17.57;10.50;;;;;;;31.71;100.00;99355.94;1622753;85;21101;-73
2022/07/09 07:12:56;;;;;;;22.20;10.50;;;;;;;31.72;100.00;99351.42;1683512;85;21025;-75
2022/07/09 07:15:23;;;;;;;21.95;10.65;;;;;;;31.98;100.00;99353.39;1679141;85;21028;-74
2022/07/09 07:17:52;;;;;;;17.40;9.83;;;;;;;32.18;100.00;99363.08;1672121;85;21060;-73
2022/07/09 07:20:22;;;;;;;21.33;10.18;;;;;;;32.31;100.00;99359.84;1688757;84;21356;-74
2022/07/09 07:22:48;;;;;;;24.02;10.35;;;;;;;32.52;99.84;99356.55;1677751;85;21079;-73
2022/07/09 07:25:15;;;;;;;23.27;10.58;;;;;;;32.78;96.82;99355.67;1677867;85;21036;-74
2022/07/09 07:27:42;;;;;;;21.55;9.98;;;;;;;33.00;96.51;99355.14;1677297;85;21538;-74
2022/07/09 07:30:10;;;;;;;17.40;9.53;;;;;;;33.26;92.59;99348.02;1677242;85;21064;-75
2022/07/09 07:32:37;;;;;;;23.38;10.60;;;;;;;33.47;89.72;99341.03;1677482;84;21068;-74
2022/07/09 07:35:04;;;;;;;17.85;10.23;;;;;;;33.62;79.39;99338.98;1677455;85;21490;-73
2022/07/09 07:37:31;;;;;;;18.25;9.75;;;;;;;33.61;82.07;99344.38;1677413;85;21103;-74
2022/07/09 07:39:59;;;;;;;19.50;9.40;;;;;;;33.81;81.39;99335.72;1677334;85;21021;-74
2022/07/09 07:42:26;;;;;;;19.17;8.65;;;;;;;33.95;69.71;99336.02;1655903;85;21091;-73
2022/07/09 07:44:53;;;;;;;18.00;8.65;;;;;;;33.99;70.75;99334.97;1656139;85;21076;-73
2022/07/09 07:47:20;;;;;;;19.05;8.53;;;;;;;34.27;69.53;99332.98;1677249;85;21009;-73
2022/07/09 07:49:47;;;;;;;20.10;9.85;;;;;;;34.64;69.26;99329.42;1677652;85;21537;-72
2022/07/09 07:52:14;;;;;;;17.70;8.33;;;;;;;34.92;64.21;99333.19;1656310;85;21572;-73
2022/07/09 07:54:42;;;;;;;16.65;7.87;;;;;;;35.12;59.71;99329.19;1677403;85;21080;-74
2022/07/09 07:57:11;;;;;;;14.60;7.47;;;;;;;34.95;53.47;99322.66;1655810;85;21695;-74
2022/07/09 07:59:39;;;;;;;17.48;8.28;;;;;;;34.60;50.60;99325.06;1677543;85;21537;-73
2022/07/09 08:02:06;;;;;;;20.57;10.08;;;;;;;34.25;51.05;99326.91;1677645;85;21091;-74
2022/07/09 08:04:34;;;;;;;56.33;50.50;;;;;;;34.25;54.65;99329.71;1677717;85;22436;-72
2022/07/09 08:07:01;;;;;;;23.42;12.53;;;;;;;34.30;53.71;99323.04;1677420;85;21147;-73
2022/07/09 08:09:29;;;;;;;13.98;7.53;;;;;;;34.30;54.73;99326.69;1690444;84;21025;-72
2022/07/09 08:11:59;;;;;;;21.07;9.55;;;;;;;34.23;50.94;99319.42;1692235;84;21044;-74
2022/07/09 08:14:28;;;;;;;22.95;10.65;;;;;;;34.22;51.23;99316.38;1694135;85;21043;-73
2022/07/09 08:16:56;;;;;;;21.20;9.80;;;;;;;34.03;53.52;99321.91;1704211;83;21063;-73
2022/07/09 08:19:23;;;;;;;26.40;8.15;;;;;;;33.96;55.99;99323.63;1700890;83;21032;-73
2022/07/09 08:21:51;;;;;;;15.50;6.95;;;;;;;34.02;52.53;99315.25;1769011;81;21520;-72
2022/07/09 08:24:18;;;;;;;15.32;6.62;;;;;;;33.99;47.10;99319.55;1738769;81;21339;-73
2022/07/09 08:26:45;;;;;;;17.10;6.87;;;;;;;33.98;46.72;99315.68;1769066;80;21046;-73
2022/07/09 08:29:12;;;;;;;19.82;7.35;;;;;;;34.34;48.80;99312.19;1769146;81;21512;-73
2022/07/09 08:31:39;;;;;;;20.20;6.85;;;;;;;34.91;48.39;99299.25;1769028;81;20999;-74
2022/07/09 08:34:07;;;;;;;17.15;6.47;;;;;;;35.43;42.57;99300.44;1738959;81;21093;-72
2022/07/09 08:36:34;;;;;;;21.42;6.35;;;;;;;35.67;40.49;99297.33;1769067;81;21461;-73
2022/07/09 08:39:01;;;;;;;18.30;6.62;;;;;;;35.52;38.56;99302.55;1769134;81;21053;-73
2022/07/09 08:41:28;;;;;;;14.25;6.10;;;;;;;35.01;37.90;99304.98;1769086;81;21086;-74
2022/07/09 08:43:55;;;;;;;19.07;5.67;;;;;;;34.46;38.63;99305.78;1769086;81;20995;-73
2022/07/09 08:46:23;;;;;;;13.95;5.95;;;;;;;34.04;40.13;99295.49;1768972;81;21042;-74
2022/07/09 08:48:50;;;;;;;13.62;5.65;;;;;;;34.01;42.15;99295.37;1739186;81;20991;-73
2022/07/09 08:51:19;;;;;;;35.08;7.00;;;;;;;34.15;42.69;99292.25;1769352;81;21058;-73
2022/07/09 08:53:46;;;;;;;19.00;5.37;;;;;;;34.23;41.45;99288.56;1738939;79;21023;-72
2022/07/09 08:56:13;;;;;;;16.20;5.47;;;;;;;34.20;40.94;99290.06;1769196;81;21530;-73
2022/07/09 08:58:41;;;;;;;18.17;5.28;;;;;;;34.17;41.43;99289.32;1769078;81;21563;-72
2022/07/09 09:01:11;;;;;;;24.02;5.72;;;;;;;34.28;40.78;99284.13;1769219;81;21138;-72
2022/07/09 09:03:39;;;;;;;20.30;6.67;;;;;;;34.40;39.79;99282.72;1693801;83;21125;-73
2022/07/09 09:06:08;;;;;;;18.25;5.60;;;;;;;34.47;40.64;99282.14;1647867;86;21113;-73
2022/07/09 09:08:38;;;;;;;14.98;5.15;;;;;;;34.40;38.08;99282.72;1667988;86;21141;-73
2022/07/09 09:11:13;;;;;;;13.53;4.72;;;;;;;34.02;38.11;99279.59;1664666;86;21140;-74
2022/07/09 09:13:45;;;;;;;14.28;4.28;;;;;;;33.84;38.96;99276.77;1608158;88;21075;-74
2022/07/09 09:16:13;;;;;;;10.43;4.17;;;;;;;34.07;39.06;99275.77;1631917;88;21032;-73
2022/07/09 09:18:41;;;;;;;13.62;4.58;;;;;;;34.59;39.16;99270.11;1631907;88;21098;-73
2022/07/09 09:21:09;;;;;;;14.18;4.75;;;;;;;35.24;40.11;99260.93;1610544;88;21103;-73
2022/07/09 09:23:45;;;;;;;14.30;4.50;;;;;;;35.77;36.27;99261.70;1609973;88;21063;-73
2022/07/09 09:26:21;;;;;;;10.15;4.45;;;;;;;36.01;36.17;99259.92;1565624;92;21099;-73
2022/07/09 09:29:01;;;;;;;16.55;4.72;;;;;;;36.12;34.80;99256.79;1565755;92;21131;-74
2022/07/09 09:31:34;;;;;;;14.25;4.92;;;;;;;36.29;35.56;99257.06;1564384;92;21108;-74
2022/07/09 09:34:12;;;;;;;18.37;4.75;;;;;;;36.64;33.87;99249.28;1516252;94;21086;-73
2022/07/09 09:36:44;;;;;;;20.40;5.00;;;;;;;36.73;32.48;99248.52;1566724;91;21609;-75
2022/07/09 09:39:25;;;;;;;13.32;4.37;;;;;;;36.53;31.71;99253.81;1566981;91;21109;-74
2022/07/09 09:42:01;;;;;;;19.23;4.67;;;;;;;36.30;33.41;99251.64;1567154;91;21081;-73
2022/07/09 09:44:39;;;;;;;16.80;4.67;;;;;;;36.46;33.12;99248.25;1567461;91;21668;-73
2022/07/09 09:47:10;;;;;;;14.47;4.03;;;;;;;36.78;33.68;99238.95;1568463;91;21093;-70
2022/07/09 09:49:38;;;;;;;15.23;4.40;;;;;;;37.21;33.35;99239.34;1568393;91;21578;-68
2022/07/09 09:52:11;;;;;;;12.88;4.00;;;;;;;37.62;31.93;99233.32;1568441;91;21045;-70
2022/07/09 09:54:42;;;;;;;18.55;4.90;;;;;;;37.69;29.21;99238.33;1568481;91;21665;-73
2022/07/09 09:57:13;;;;;;;12.43;4.50;;;;;;;37.33;29.93;99230.54;1568532;91;21081;-74
2022/07/09 09:59:41;;;;;;;15.55;4.78;;;;;;;37.29;30.56;99229.03;1522595;93;21640;-73
2022/07/09 10:02:10;;;;;;;11.33;3.92;;;;;;;37.38;30.59;99231.05;1539803;93;21101;-74
2022/07/09 10:04:45;;;;;;;13.35;4.00;;;;;;;37.17;29.43;99232.02;1539848;93;21072;-73
2022/07/09 10:07:14;;;;;;;16.75;4.30;;;;;;;36.73;29.68;99225.17;1493383;96;21182;-73
2022/07/09 10:09:57;;;;;;;9.85;4.10;;;;;;;36.61;30.76;99227.48;1463902;95;21138;-74
2022/07/09 10:12:33;;;;;;;14.28;4.20;;;;;;;36.78;31.00;99222.89;1453190;98;21223;-74
2022/07/09 10:15:00;;;;;;;129.87;15.58;;;;;;;37.04;30.10;99224.25;1464786;96;21161;-73
2022/07/09 10:17:27;;;;;;;19.50;4.40;;;;;;;37.16;30.57;99223.30;1470498;98;21664;-73
2022/07/09 10:20:04;;;;;;;14.93;4.40;;;;;;;37.22;29.96;99217.03;1463488;98;21171;-73
2022/07/09 10:22:48;;;;;;;23.70;4.55;;;;;;;37.34;30.24;99208.20;1472908;96;21608;-74
2022/07/09 10:25:29;;;;;;;8.03;3.60;;;;;;;37.47;30.02;99206.03;1503801;95;21099;-74
2022/07/09 10:27:56;;;;;;;16.25;3.87;;;;;;;37.55;28.99;99203.58;1480613;97;21110;-75
2022/07/09 10:30:26;;;;;;;11.57;3.62;;;;;;;37.46;30.47;99200.19;1489899;96;21146;-73
2022/07/09 10:33:11;;;;;;;12.47;3.60;;;;;;;37.59;29.75;99196.83;1481867;96;21134;-73
2022/07/09 10:38:20;;;;;;;16.05;4.10;;;;;;;37.76;29.59;99193.33;1388841;102;21163;-74
2022/07/09 10:40:59;;;;;;;11.68;3.85;;;;;;;37.94;29.76;99195.86;1384205;103;21130;-74
2022/07/09 10:43:51;;;;;;;12.10;3.92;;;;;;;37.91;28.73;99196.63;1388525;103;21142;-72
2022/07/09 10:46:18;;;;;;;11.65;3.87;;;;;;;37.60;28.58;99185.75;1382748;102;21706;-73
2022/07/09 10:48:46;;;;;;;16.57;4.03;;;;;;;37.57;28.97;99190.72;1388465;103;21166;-73
2022/07/09 10:51:19;;;;;;;8.85;3.50;;;;;;;37.61;29.67;99185.15;1385023;100;21185;-73
2022/07/09 10:53:47;;;;;;;11.53;3.95;;;;;;;37.80;29.28;99172.44;1384932;103;21146;-72
2022/07/09 10:56:21;;;;;;;15.63;4.28;;;;;;;37.99;29.45;99169.34;1385005;103;21258;-73
2022/07/09 10:58:49;;;;;;;12.03;3.75;;;;;;;38.25;30.53;99164.37;1388677;103;21199;-73
2022/07/09 11:03:53;;;;;;;17.75;3.92;;;;;;;38.66;28.36;99160.97;1403760;100;21169;-74
2022/07/09 11:06:21;;;;;;;19.35;3.72;;;;;;;38.69;29.59;99147.47;1434122;100;21107;-72
2022/07/09 11:08:48;;;;;;;12.43;3.75;;;;;;;38.89;29.14;99157.44;1433782;100;21693;-72
2022/07/09 11:11:25;;;;;;;12.98;3.98;;;;;;;38.79;28.02;99155.89;1411291;101;21160;-76
2022/07/09 11:13:54;;;;;;;13.40;5.10;;;;;;;38.34;27.59;99155.63;1444472;99;21173;-73
2022/07/09 11:16:24;;;;;;;13.40;4.37;;;;;;;38.04;28.94;99151.30;1454606;97;21680;-74
2022/07/09 11:18:51;;;;;;;7.00;3.40;;;;;;;38.07;29.59;99146.28;1473879;96;21566;-75
2022/07/09 11:21:25;;;;;;;15.95;3.62;;;;;;;37.85;28.27;99149.36;1446807;98;21245;-74
2022/07/09 11:23:53;;;;;;;11.63;3.55;;;;;;;37.50;28.62;99139.84;1464475;98;21130;-73
2022/07/09 11:26:20;;;;;;;13.10;3.85;;;;;;;37.13;28.93;99134.67;1464294;98;21598;-73
2022/07/09 11:28:48;;;;;;;10.40;3.98;;;;;;;36.87;30.79;99135.37;1464331;98;21136;-73